sensor_id;sensor_type;location;lat;lon;timestamp;temperature;humidity
3996;DHT22;2012;49.794;9.722;2023-06-14T00:02:02;15.10;99.90
3996;DHT22;2012;49.794;9.722;2023-06-14T00:04:30;14.90;99.90
3996;DHT22;2012;49.794;9.722;2023-06-14T00:06:57;14.90;99.90
3996;DHT22;2012;49.794;9.722;2023-06-14T00:09:24;14.80;99.90
3996;DHT22;2012;49.794;9.722;2023-06-14T00:11:51;14.40;99.90
3996;DHT22;2012;49.794;9.722;2023-06-14T00:14:18;14.50;99.90
3996;DHT22;2012;49.794;9.722;2023-06-14T00:16:46;14.60;99.90
3996;DHT22;2012;49.794;9.722;2023-06-14T00:19:13;14.70;99.90
3996;DHT22;2012;49.794;9.722;2023-06-14T00:21:39;14.70;99.90
3996;DHT22;2012;49.794;9.722;2023-06-14T00:24:07;14.70;99.90
3996;DHT22;2012;49.794;9.722;2023-06-14T00:26:34;14.80;99.90
3996;DHT22;2012;49.794;9.722;2023-06-14T00:29:01;14.80;99.90
3996;DHT22;2012;49.794;9.722;2023-06-14T00:31:28;14.60;99.90
3996;DHT22;2012;49.794;9.722;2023-06-14T00:33:55;14.50;99.90
3996;DHT22;2012;49.794;9.722;2023-06-14T00:36:22;14.40;99.90
3996;DHT22;2012;49.794;9.722;2023-06-14T00:38:49;14.30;99.90
3996;DHT22;2012;49.794;9.722;2023-06-14T00:41:16;14.20;99.90
3996;DHT22;2012;49.794;9.722;2023-06-14T00:43:43;14.20;99.90
3996;DHT22;2012;49.794;9.722;2023-06-14T00:46:09;14.20;99.90
3996;DHT22;2012;49.794;9.722;2023-06-14T00:48:37;14.20;99.90
3996;DHT22;2012;49.794;9.722;2023-06-14T00:51:05;14.30;99.90
3996;DHT22;2012;49.794;9.722;2023-06-14T00:53:33;14.20;99.90
3996;DHT22;2012;49.794;9.722;2023-06-14T00:56:02;14.30;99.90
3996;DHT22;2012;49.794;9.722;2023-06-14T00:58:30;14.30;99.90
3996;DHT22;2012;49.794;9.722;2023-06-14T01:00:57;14.40;99.90
3996;DHT22;2012;49.794;9.722;2023-06-14T01:03:25;14.30;99.90
3996;DHT22;2012;49.794;9.722;2023-06-14T01:05:58;14.20;99.90
3996;DHT22;2012;49.794;9.722;2023-06-14T01:08:50;14.10;99.90
3996;DHT22;2012;49.794;9.722;2023-06-14T01:11:28;13.70;99.90
3996;DHT22;2012;49.794;9.722;2023-06-14T01:14:00;13.70;99.90
3996;DHT22;2012;49.794;9.722;2023-06-14T01:16:29;14.00;99.90
3996;DHT22;2012;49.794;9.722;2023-06-14T01:18:58;14.00;99.90
3996;DHT22;2012;49.794;9.722;2023-06-14T01:21:26;14.10;99.90
3996;DHT22;2012;49.794;9.722;2023-06-14T01:23:54;14.10;99.90
3996;DHT22;2012;49.794;9.722;2023-06-14T01:26:25;13.80;99.90
3996;DHT22;2012;49.794;9.722;2023-06-14T01:28:55;13.70;99.90
3996;DHT22;2012;49.794;9.722;2023-06-14T01:31:25;13.90;99.90
3996;DHT22;2012;49.794;9.722;2023-06-14T01:33:53;13.80;99.90
3996;DHT22;2012;49.794;9.722;2023-06-14T01:36:22;13.90;99.90
3996;DHT22;2012;49.794;9.722;2023-06-14T01:38:53;13.80;99.90
3996;DHT22;2012;49.794;9.722;2023-06-14T01:41:21;13.90;99.90
3996;DHT22;2012;49.794;9.722;2023-06-14T01:43:52;13.70;99.90
3996;DHT22;2012;49.794;9.722;2023-06-14T01:46:20;13.70;99.90
3996;DHT22;2012;49.794;9.722;2023-06-14T01:48:46;13.80;99.90
3996;DHT22;2012;49.794;9.722;2023-06-14T01:51:14;13.80;99.90
3996;DHT22;2012;49.794;9.722;2023-06-14T01:53:41;13.60;99.90
3996;DHT22;2012;49.794;9.722;2023-06-14T01:56:09;13.40;99.90
3996;DHT22;2012;49.794;9.722;2023-06-14T01:58:36;13.20;99.90
3996;DHT22;2012;49.794;9.722;2023-06-14T02:01:03;13.30;99.90
3996;DHT22;2012;49.794;9.722;2023-06-14T02:03:30;13.40;99.90
3996;DHT22;2012;49.794;9.722;2023-06-14T02:05:58;13.50;99.90
3996;DHT22;2012;49.794;9.722;2023-06-14T02:08:25;13.40;99.90
3996;DHT22;2012;49.794;9.722;2023-06-14T02:10:52;13.30;99.90
3996;DHT22;2012;49.794;9.722;2023-06-14T02:13:21;13.20;99.90
3996;DHT22;2012;49.794;9.722;2023-06-14T02:15:47;13.30;99.90
3996;DHT22;2012;49.794;9.722;2023-06-14T02:18:18;13.30;99.90
3996;DHT22;2012;49.794;9.722;2023-06-14T02:20:45;13.30;99.90
3996;DHT22;2012;49.794;9.722;2023-06-14T02:23:12;13.30;99.90
3996;DHT22;2012;49.794;9.722;2023-06-14T02:25:39;13.00;99.90
3996;DHT22;2012;49.794;9.722;2023-06-14T02:28:07;13.30;99.90
3996;DHT22;2012;49.794;9.722;2023-06-14T02:30:34;13.20;99.90
3996;DHT22;2012;49.794;9.722;2023-06-14T02:33:01;13.20;99.90
3996;DHT22;2012;49.794;9.722;2023-06-14T02:35:30;13.10;99.90
3996;DHT22;2012;49.794;9.722;2023-06-14T02:37:57;13.00;99.90
3996;DHT22;2012;49.794;9.722;2023-06-14T02:40:23;13.10;99.90
3996;DHT22;2012;49.794;9.722;2023-06-14T02:42:50;13.10;99.90
3996;DHT22;2012;49.794;9.722;2023-06-14T02:45:17;13.00;99.90
3996;DHT22;2012;49.794;9.722;2023-06-14T02:47:45;12.90;99.90
3996;DHT22;2012;49.794;9.722;2023-06-14T02:50:12;13.10;99.90
3996;DHT22;2012;49.794;9.722;2023-06-14T02:52:39;13.20;99.90
3996;DHT22;2012;49.794;9.722;2023-06-14T02:55:08;13.00;99.90
3996;DHT22;2012;49.794;9.722;2023-06-14T02:57:37;13.00;99.90
3996;DHT22;2012;49.794;9.722;2023-06-14T03:00:06;12.70;99.90
3996;DHT22;2012;49.794;9.722;2023-06-14T03:02:36;12.70;99.90
3996;DHT22;2012;49.794;9.722;2023-06-14T03:05:04;12.90;99.90
3996;DHT22;2012;49.794;9.722;2023-06-14T03:07:34;12.90;99.90
3996;DHT22;2012;49.794;9.722;2023-06-14T03:10:03;12.80;99.90
3996;DHT22;2012;49.794;9.722;2023-06-14T03:12:30;12.80;99.90
3996;DHT22;2012;49.794;9.722;2023-06-14T03:14:57;12.70;99.90
3996;DHT22;2012;49.794;9.722;2023-06-14T03:17:31;12.70;99.90
3996;DHT22;2012;49.794;9.722;2023-06-14T03:20:02;12.70;99.90
3996;DHT22;2012;49.794;9.722;2023-06-14T03:22:30;12.70;99.90
3996;DHT22;2012;49.794;9.722;2023-06-14T03:24:58;12.80;99.90
3996;DHT22;2012;49.794;9.722;2023-06-14T03:27:27;12.70;99.90
3996;DHT22;2012;49.794;9.722;2023-06-14T03:29:55;12.70;99.90
3996;DHT22;2012;49.794;9.722;2023-06-14T03:32:22;12.70;99.90
3996;DHT22;2012;49.794;9.722;2023-06-14T03:34:49;12.70;99.90
3996;DHT22;2012;49.794;9.722;2023-06-14T03:37:20;12.70;99.90
3996;DHT22;2012;49.794;9.722;2023-06-14T03:39:47;12.60;99.90
3996;DHT22;2012;49.794;9.722;2023-06-14T03:42:19;12.60;99.90
3996;DHT22;2012;49.794;9.722;2023-06-14T03:44:47;12.60;99.90
3996;DHT22;2012;49.794;9.722;2023-06-14T03:47:14;12.40;99.90
3996;DHT22;2012;49.794;9.722;2023-06-14T03:49:41;12.50;99.90
3996;DHT22;2012;49.794;9.722;2023-06-14T03:52:09;12.50;99.90
3996;DHT22;2012;49.794;9.722;2023-06-14T03:54:37;12.60;99.90
3996;DHT22;2012;49.794;9.722;2023-06-14T03:57:08;12.60;99.90
3996;DHT22;2012;49.794;9.722;2023-06-14T03:59:36;12.70;99.90
3996;DHT22;2012;49.794;9.722;2023-06-14T04:02:03;12.70;99.90
3996;DHT22;2012;49.794;9.722;2023-06-14T04:04:32;12.80;99.90
3996;DHT22;2012;49.794;9.722;2023-06-14T04:06:59;12.70;99.90
3996;DHT22;2012;49.794;9.722;2023-06-14T04:09:27;12.70;99.90
3996;DHT22;2012;49.794;9.722;2023-06-14T04:11:54;12.80;99.90
3996;DHT22;2012;49.794;9.722;2023-06-14T04:14:23;12.50;99.90
3996;DHT22;2012;49.794;9.722;2023-06-14T04:16:50;12.60;99.90
3996;DHT22;2012;49.794;9.722;2023-06-14T04:19:19;12.80;99.90
3996;DHT22;2012;49.794;9.722;2023-06-14T04:21:46;12.80;99.90
3996;DHT22;2012;49.794;9.722;2023-06-14T04:24:15;12.80;99.90
3996;DHT22;2012;49.794;9.722;2023-06-14T04:26:45;12.90;99.90
3996;DHT22;2012;49.794;9.722;2023-06-14T04:29:15;13.00;99.90
3996;DHT22;2012;49.794;9.722;2023-06-14T04:31:47;13.00;99.90
3996;DHT22;2012;49.794;9.722;2023-06-14T04:34:14;13.10;99.90
3996;DHT22;2012;49.794;9.722;2023-06-14T04:36:49;13.00;99.90
3996;DHT22;2012;49.794;9.722;2023-06-14T04:39:16;13.20;99.90
3996;DHT22;2012;49.794;9.722;2023-06-14T04:41:46;13.30;99.90
3996;DHT22;2012;49.794;9.722;2023-06-14T04:44:13;13.30;99.90
3996;DHT22;2012;49.794;9.722;2023-06-14T04:46:46;13.50;99.90
3996;DHT22;2012;49.794;9.722;2023-06-14T04:49:17;13.60;99.90
3996;DHT22;2012;49.794;9.722;2023-06-14T04:51:45;13.70;99.90
3996;DHT22;2012;49.794;9.722;2023-06-14T04:54:13;13.60;99.90
3996;DHT22;2012;49.794;9.722;2023-06-14T04:56:41;13.70;99.90
3996;DHT22;2012;49.794;9.722;2023-06-14T04:59:13;13.70;99.90
3996;DHT22;2012;49.794;9.722;2023-06-14T05:01:41;13.90;99.90
3996;DHT22;2012;49.794;9.722;2023-06-14T05:04:08;13.90;99.90
3996;DHT22;2012;49.794;9.722;2023-06-14T05:06:35;14.00;99.90
3996;DHT22;2012;49.794;9.722;2023-06-14T05:09:03;14.10;99.90
3996;DHT22;2012;49.794;9.722;2023-06-14T05:11:30;14.20;99.90
3996;DHT22;2012;49.794;9.722;2023-06-14T05:13:56;14.30;99.90
3996;DHT22;2012;49.794;9.722;2023-06-14T05:16:25;14.40;99.90
3996;DHT22;2012;49.794;9.722;2023-06-14T05:18:54;14.50;99.90
3996;DHT22;2012;49.794;9.722;2023-06-14T05:21:21;14.50;99.90
3996;DHT22;2012;49.794;9.722;2023-06-14T05:23:48;14.60;99.90
3996;DHT22;2012;49.794;9.722;2023-06-14T05:26:15;14.80;99.90
3996;DHT22;2012;49.794;9.722;2023-06-14T05:28:42;14.90;99.90
3996;DHT22;2012;49.794;9.722;2023-06-14T05:31:09;15.10;99.90
3996;DHT22;2012;49.794;9.722;2023-06-14T05:33:36;15.10;99.90
3996;DHT22;2012;49.794;9.722;2023-06-14T05:36:03;15.20;99.90
3996;DHT22;2012;49.794;9.722;2023-06-14T05:38:32;15.20;99.90
3996;DHT22;2012;49.794;9.722;2023-06-14T05:40:59;15.30;99.90
3996;DHT22;2012;49.794;9.722;2023-06-14T05:43:26;15.30;99.90
3996;DHT22;2012;49.794;9.722;2023-06-14T05:45:53;15.30;99.90
3996;DHT22;2012;49.794;9.722;2023-06-14T05:48:20;15.50;99.90
3996;DHT22;2012;49.794;9.722;2023-06-14T05:50:47;15.50;99.90
3996;DHT22;2012;49.794;9.722;2023-06-14T05:53:13;15.70;99.90
3996;DHT22;2012;49.794;9.722;2023-06-14T05:55:40;15.70;99.90
3996;DHT22;2012;49.794;9.722;2023-06-14T05:58:08;15.80;99.90
3996;DHT22;2012;49.794;9.722;2023-06-14T06:00:34;15.90;99.90
3996;DHT22;2012;49.794;9.722;2023-06-14T06:03:02;15.90;99.90
3996;DHT22;2012;49.794;9.722;2023-06-14T06:05:29;16.00;99.90
3996;DHT22;2012;49.794;9.722;2023-06-14T06:07:55;16.00;99.90
3996;DHT22;2012;49.794;9.722;2023-06-14T06:10:22;16.10;99.90
3996;DHT22;2012;49.794;9.722;2023-06-14T06:12:49;16.20;99.90
3996;DHT22;2012;49.794;9.722;2023-06-14T06:15:18;16.20;99.90
3996;DHT22;2012;49.794;9.722;2023-06-14T06:17:45;16.30;99.90
3996;DHT22;2012;49.794;9.722;2023-06-14T06:20:23;16.30;99.90
3996;DHT22;2012;49.794;9.722;2023-06-14T06:22:55;16.40;99.90
3996;DHT22;2012;49.794;9.722;2023-06-14T06:25:22;16.50;99.90
3996;DHT22;2012;49.794;9.722;2023-06-14T06:27:50;16.50;99.90
3996;DHT22;2012;49.794;9.722;2023-06-14T06:30:17;16.60;99.90
3996;DHT22;2012;49.794;9.722;2023-06-14T06:32:44;16.70;99.90
3996;DHT22;2012;49.794;9.722;2023-06-14T06:35:11;16.80;99.90
3996;DHT22;2012;49.794;9.722;2023-06-14T06:37:41;16.80;99.90
3996;DHT22;2012;49.794;9.722;2023-06-14T06:40:08;16.90;99.90
3996;DHT22;2012;49.794;9.722;2023-06-14T06:42:36;16.90;99.90
3996;DHT22;2012;49.794;9.722;2023-06-14T06:45:05;16.90;99.90
3996;DHT22;2012;49.794;9.722;2023-06-14T06:47:32;17.10;99.90
3996;DHT22;2012;49.794;9.722;2023-06-14T06:49:59;17.10;99.90
3996;DHT22;2012;49.794;9.722;2023-06-14T06:52:26;17.20;99.90
3996;DHT22;2012;49.794;9.722;2023-06-14T06:54:53;17.30;99.90
3996;DHT22;2012;49.794;9.722;2023-06-14T06:57:22;17.30;99.90
3996;DHT22;2012;49.794;9.722;2023-06-14T06:59:49;17.50;99.90
3996;DHT22;2012;49.794;9.722;2023-06-14T07:02:17;17.60;99.90
3996;DHT22;2012;49.794;9.722;2023-06-14T07:04:44;17.60;99.90
3996;DHT22;2012;49.794;9.722;2023-06-14T07:07:11;17.80;99.90
3996;DHT22;2012;49.794;9.722;2023-06-14T07:09:38;17.80;99.90
3996;DHT22;2012;49.794;9.722;2023-06-14T07:12:05;17.80;99.90
3996;DHT22;2012;49.794;9.722;2023-06-14T07:14:33;18.00;99.90
3996;DHT22;2012;49.794;9.722;2023-06-14T07:17:00;18.00;99.90
3996;DHT22;2012;49.794;9.722;2023-06-14T07:19:28;18.00;99.90
3996;DHT22;2012;49.794;9.722;2023-06-14T07:21:55;18.10;99.90
3996;DHT22;2012;49.794;9.722;2023-06-14T07:24:22;18.20;99.90
3996;DHT22;2012;49.794;9.722;2023-06-14T07:26:49;18.20;99.90
3996;DHT22;2012;49.794;9.722;2023-06-14T07:29:16;18.20;99.90
3996;DHT22;2012;49.794;9.722;2023-06-14T07:31:43;18.30;99.90
3996;DHT22;2012;49.794;9.722;2023-06-14T07:34:10;18.50;99.90
3996;DHT22;2012;49.794;9.722;2023-06-14T07:36:37;18.60;99.90
3996;DHT22;2012;49.794;9.722;2023-06-14T07:39:04;18.70;99.90
3996;DHT22;2012;49.794;9.722;2023-06-14T07:41:33;18.70;99.90
3996;DHT22;2012;49.794;9.722;2023-06-14T07:44:00;18.60;99.90
3996;DHT22;2012;49.794;9.722;2023-06-14T07:46:27;18.70;99.90
3996;DHT22;2012;49.794;9.722;2023-06-14T07:48:54;18.80;99.90
3996;DHT22;2012;49.794;9.722;2023-06-14T07:51:21;19.00;99.90
3996;DHT22;2012;49.794;9.722;2023-06-14T07:53:49;19.00;99.90
3996;DHT22;2012;49.794;9.722;2023-06-14T07:56:16;19.10;99.90
3996;DHT22;2012;49.794;9.722;2023-06-14T07:58:43;19.10;99.90
3996;DHT22;2012;49.794;9.722;2023-06-14T08:01:09;19.20;99.90
3996;DHT22;2012;49.794;9.722;2023-06-14T08:03:38;19.40;99.90
3996;DHT22;2012;49.794;9.722;2023-06-14T08:06:06;19.40;99.90
3996;DHT22;2012;49.794;9.722;2023-06-14T08:08:33;19.60;99.90
3996;DHT22;2012;49.794;9.722;2023-06-14T08:11:00;19.70;99.90
3996;DHT22;2012;49.794;9.722;2023-06-14T08:13:27;19.70;99.80
3996;DHT22;2012;49.794;9.722;2023-06-14T08:15:54;19.70;98.40
3996;DHT22;2012;49.794;9.722;2023-06-14T08:18:24;19.80;99.10
3996;DHT22;2012;49.794;9.722;2023-06-14T08:20:51;20.00;98.40
3996;DHT22;2012;49.794;9.722;2023-06-14T08:23:18;20.10;98.00
3996;DHT22;2012;49.794;9.722;2023-06-14T08:25:47;20.30;98.20
3996;DHT22;2012;49.794;9.722;2023-06-14T08:28:14;20.40;96.20
3996;DHT22;2012;49.794;9.722;2023-06-14T08:30:42;20.30;95.80
3996;DHT22;2012;49.794;9.722;2023-06-14T08:33:10;20.20;96.40
3996;DHT22;2012;49.794;9.722;2023-06-14T08:35:43;20.50;96.70
3996;DHT22;2012;49.794;9.722;2023-06-14T08:38:10;20.50;95.00
3996;DHT22;2012;49.794;9.722;2023-06-14T08:40:39;20.60;96.00
3996;DHT22;2012;49.794;9.722;2023-06-14T08:43:06;20.60;95.50
3996;DHT22;2012;49.794;9.722;2023-06-14T08:45:34;20.60;95.50
3996;DHT22;2012;49.794;9.722;2023-06-14T08:48:01;20.70;94.40
3996;DHT22;2012;49.794;9.722;2023-06-14T08:50:30;20.80;94.10
3996;DHT22;2012;49.794;9.722;2023-06-14T08:53:01;20.90;92.20
3996;DHT22;2012;49.794;9.722;2023-06-14T08:55:30;21.00;93.10
3996;DHT22;2012;49.794;9.722;2023-06-14T08:58:04;21.00;92.90
3996;DHT22;2012;49.794;9.722;2023-06-14T09:00:32;21.10;93.20
3996;DHT22;2012;49.794;9.722;2023-06-14T09:03:00;21.10;92.20
3996;DHT22;2012;49.794;9.722;2023-06-14T09:05:28;21.20;92.30
3996;DHT22;2012;49.794;9.722;2023-06-14T09:07:55;21.30;92.90
3996;DHT22;2012;49.794;9.722;2023-06-14T09:10:32;21.40;92.10
3996;DHT22;2012;49.794;9.722;2023-06-14T09:13:04;21.50;91.90
3996;DHT22;2012;49.794;9.722;2023-06-14T09:15:31;21.60;91.60
3996;DHT22;2012;49.794;9.722;2023-06-14T09:18:01;21.80;91.40
3996;DHT22;2012;49.794;9.722;2023-06-14T09:20:30;22.00;91.30
3996;DHT22;2012;49.794;9.722;2023-06-14T09:22:57;22.00;89.80
3996;DHT22;2012;49.794;9.722;2023-06-14T09:25:24;22.00;89.90
3996;DHT22;2012;49.794;9.722;2023-06-14T09:28:07;22.00;88.70
3996;DHT22;2012;49.794;9.722;2023-06-14T09:30:37;22.00;88.40
3996;DHT22;2012;49.794;9.722;2023-06-14T09:33:04;22.10;89.80
3996;DHT22;2012;49.794;9.722;2023-06-14T09:35:32;22.20;86.20
3996;DHT22;2012;49.794;9.722;2023-06-14T09:37:59;22.30;86.00
3996;DHT22;2012;49.794;9.722;2023-06-14T09:40:26;22.30;85.00
3996;DHT22;2012;49.794;9.722;2023-06-14T09:42:54;22.20;83.50
3996;DHT22;2012;49.794;9.722;2023-06-14T09:45:22;21.90;84.80
3996;DHT22;2012;49.794;9.722;2023-06-14T09:47:50;21.60;86.40
3996;DHT22;2012;49.794;9.722;2023-06-14T09:50:32;21.40;87.00
3996;DHT22;2012;49.794;9.722;2023-06-14T09:53:06;21.70;87.60
3996;DHT22;2012;49.794;9.722;2023-06-14T09:55:36;21.90;85.70
3996;DHT22;2012;49.794;9.722;2023-06-14T09:58:06;22.00;86.40
3996;DHT22;2012;49.794;9.722;2023-06-14T10:00:35;22.30;83.80
3996;DHT22;2012;49.794;9.722;2023-06-14T10:03:13;22.40;83.50
3996;DHT22;2012;49.794;9.722;2023-06-14T10:05:45;22.10;81.00
3996;DHT22;2012;49.794;9.722;2023-06-14T10:08:15;22.00;82.00
3996;DHT22;2012;49.794;9.722;2023-06-14T10:10:43;21.90;80.90
3996;DHT22;2012;49.794;9.722;2023-06-14T10:13:11;22.40;82.00
3996;DHT22;2012;49.794;9.722;2023-06-14T10:15:57;22.70;81.00
3996;DHT22;2012;49.794;9.722;2023-06-14T10:21:14;22.90;80.60
3996;DHT22;2012;49.794;9.722;2023-06-14T10:23:44;22.60;79.50
3996;DHT22;2012;49.794;9.722;2023-06-14T10:26:22;22.30;78.10
3996;DHT22;2012;49.794;9.722;2023-06-14T10:29:00;22.10;79.00
3996;DHT22;2012;49.794;9.722;2023-06-14T10:31:49;22.00;80.80
3996;DHT22;2012;49.794;9.722;2023-06-14T10:34:30;22.00;79.20
3996;DHT22;2012;49.794;9.722;2023-06-14T10:37:04;21.70;78.90
3996;DHT22;2012;49.794;9.722;2023-06-14T10:39:38;21.90;80.30
3996;DHT22;2012;49.794;9.722;2023-06-14T10:42:06;21.80;78.40
3996;DHT22;2012;49.794;9.722;2023-06-14T10:47:07;22.30;76.90
3996;DHT22;2012;49.794;9.722;2023-06-14T10:49:46;22.90;77.50
3996;DHT22;2012;49.794;9.722;2023-06-14T10:52:15;23.40;77.70
3996;DHT22;2012;49.794;9.722;2023-06-14T10:55:01;23.40;75.80
3996;DHT22;2012;49.794;9.722;2023-06-14T10:57:30;23.70;75.50
3996;DHT22;2012;49.794;9.722;2023-06-14T11:00:16;23.70;72.90
3996;DHT22;2012;49.794;9.722;2023-06-14T11:05:48;23.60;71.60
3996;DHT22;2012;49.794;9.722;2023-06-14T11:10:58;23.20;71.50
3996;DHT22;2012;49.794;9.722;2023-06-14T11:13:26;23.40;73.10
3996;DHT22;2012;49.794;9.722;2023-06-14T11:15:56;23.30;70.00
3996;DHT22;2012;49.794;9.722;2023-06-14T11:18:24;22.90;68.80
3996;DHT22;2012;49.794;9.722;2023-06-14T11:20:51;22.90;70.50
3996;DHT22;2012;49.794;9.722;2023-06-14T11:23:18;23.00;70.60
3996;DHT22;2012;49.794;9.722;2023-06-14T11:25:52;23.00;69.40
3996;DHT22;2012;49.794;9.722;2023-06-14T11:28:19;23.00;71.40
3996;DHT22;2012;49.794;9.722;2023-06-14T11:30:49;23.00;72.60
3996;DHT22;2012;49.794;9.722;2023-06-14T11:33:26;23.10;71.70
3996;DHT22;2012;49.794;9.722;2023-06-14T11:35:53;23.10;70.70
3996;DHT22;2012;49.794;9.722;2023-06-14T11:38:20;23.30;70.60
3996;DHT22;2012;49.794;9.722;2023-06-14T11:40:46;23.50;69.70
3996;DHT22;2012;49.794;9.722;2023-06-14T11:43:13;23.70;68.50
3996;DHT22;2012;49.794;9.722;2023-06-14T11:45:41;24.10;66.10
3996;DHT22;2012;49.794;9.722;2023-06-14T11:48:07;23.70;63.20
3996;DHT22;2012;49.794;9.722;2023-06-14T11:50:37;24.00;66.10
3996;DHT22;2012;49.794;9.722;2023-06-14T11:53:05;24.00;67.70
3996;DHT22;2012;49.794;9.722;2023-06-14T11:55:37;24.10;65.50
3996;DHT22;2012;49.794;9.722;2023-06-14T11:58:04;24.10;64.20
3996;DHT22;2012;49.794;9.722;2023-06-14T12:00:31;24.60;65.90
3996;DHT22;2012;49.794;9.722;2023-06-14T12:02:59;24.90;64.20
3996;DHT22;2012;49.794;9.722;2023-06-14T12:05:27;25.00;62.60
3996;DHT22;2012;49.794;9.722;2023-06-14T12:08:01;25.00;60.80
3996;DHT22;2012;49.794;9.722;2023-06-14T12:10:30;25.00;59.50
3996;DHT22;2012;49.794;9.722;2023-06-14T12:13:05;24.80;60.70
3996;DHT22;2012;49.794;9.722;2023-06-14T12:15:32;24.60;60.60
3996;DHT22;2012;49.794;9.722;2023-06-14T12:17:59;24.30;61.20
3996;DHT22;2012;49.794;9.722;2023-06-14T12:20:30;24.20;59.10
3996;DHT22;2012;49.794;9.722;2023-06-14T12:23:03;24.60;61.20
3996;DHT22;2012;49.794;9.722;2023-06-14T12:25:32;24.90;60.10
3996;DHT22;2012;49.794;9.722;2023-06-14T12:28:07;25.30;59.40
3996;DHT22;2012;49.794;9.722;2023-06-14T12:30:37;25.50;58.30
3996;DHT22;2012;49.794;9.722;2023-06-14T12:33:05;25.30;59.40
3996;DHT22;2012;49.794;9.722;2023-06-14T12:35:32;25.20;57.70
3996;DHT22;2012;49.794;9.722;2023-06-14T12:38:00;25.10;56.60
3996;DHT22;2012;49.794;9.722;2023-06-14T12:40:27;25.00;57.40
3996;DHT22;2012;49.794;9.722;2023-06-14T12:42:54;24.50;57.60
3996;DHT22;2012;49.794;9.722;2023-06-14T12:45:20;24.50;59.40
3996;DHT22;2012;49.794;9.722;2023-06-14T12:47:47;24.50;59.30
3996;DHT22;2012;49.794;9.722;2023-06-14T12:50:14;24.60;59.40
3996;DHT22;2012;49.794;9.722;2023-06-14T12:52:42;24.70;61.30
3996;DHT22;2012;49.794;9.722;2023-06-14T12:55:09;25.00;57.40
3996;DHT22;2012;49.794;9.722;2023-06-14T12:57:35;25.20;58.60
3996;DHT22;2012;49.794;9.722;2023-06-14T13:00:04;24.80;58.30
3996;DHT22;2012;49.794;9.722;2023-06-14T13:02:32;24.90;57.10
3996;DHT22;2012;49.794;9.722;2023-06-14T13:04:59;24.90;56.10
3996;DHT22;2012;49.794;9.722;2023-06-14T13:07:27;24.50;57.00
3996;DHT22;2012;49.794;9.722;2023-06-14T13:09:53;25.10;57.40
3996;DHT22;2012;49.794;9.722;2023-06-14T13:12:20;25.20;55.90
3996;DHT22;2012;49.794;9.722;2023-06-14T13:14:47;25.20;55.10
3996;DHT22;2012;49.794;9.722;2023-06-14T13:17:14;25.30;56.40
3996;DHT22;2012;49.794;9.722;2023-06-14T13:19:41;25.40;55.40
3996;DHT22;2012;49.794;9.722;2023-06-14T13:22:09;25.80;55.30
3996;DHT22;2012;49.794;9.722;2023-06-14T13:24:36;25.80;55.30
3996;DHT22;2012;49.794;9.722;2023-06-14T13:27:03;25.50;54.50
3996;DHT22;2012;49.794;9.722;2023-06-14T13:29:30;25.20;54.20
3996;DHT22;2012;49.794;9.722;2023-06-14T13:31:57;25.00;54.20
3996;DHT22;2012;49.794;9.722;2023-06-14T13:34:24;25.20;54.20
3996;DHT22;2012;49.794;9.722;2023-06-14T13:36:51;25.40;54.10
3996;DHT22;2012;49.794;9.722;2023-06-14T13:39:18;25.40;53.30
3996;DHT22;2012;49.794;9.722;2023-06-14T13:41:45;25.50;53.30
3996;DHT22;2012;49.794;9.722;2023-06-14T13:44:12;25.80;53.80
3996;DHT22;2012;49.794;9.722;2023-06-14T13:46:42;26.30;53.30
3996;DHT22;2012;49.794;9.722;2023-06-14T13:49:10;26.70;54.00
3996;DHT22;2012;49.794;9.722;2023-06-14T13:51:37;26.70;53.30
3996;DHT22;2012;49.794;9.722;2023-06-14T13:54:04;26.60;50.70
3996;DHT22;2012;49.794;9.722;2023-06-14T13:56:31;26.70;52.10
3996;DHT22;2012;49.794;9.722;2023-06-14T13:58:58;26.40;51.00
3996;DHT22;2012;49.794;9.722;2023-06-14T14:01:26;26.10;51.50
3996;DHT22;2012;49.794;9.722;2023-06-14T14:03:55;25.90;52.40
3996;DHT22;2012;49.794;9.722;2023-06-14T14:06:22;25.90;52.60
3996;DHT22;2012;49.794;9.722;2023-06-14T14:08:49;25.70;52.80
3996;DHT22;2012;49.794;9.722;2023-06-14T14:11:16;25.60;52.70
3996;DHT22;2012;49.794;9.722;2023-06-14T14:13:43;25.50;52.50
3996;DHT22;2012;49.794;9.722;2023-06-14T14:16:10;25.50;52.90
3996;DHT22;2012;49.794;9.722;2023-06-14T14:18:37;25.50;53.10
3996;DHT22;2012;49.794;9.722;2023-06-14T14:21:04;25.50;52.70
3996;DHT22;2012;49.794;9.722;2023-06-14T14:23:31;25.20;52.40
3996;DHT22;2012;49.794;9.722;2023-06-14T14:25:58;25.30;52.50
3996;DHT22;2012;49.794;9.722;2023-06-14T14:28:27;25.30;54.10
3996;DHT22;2012;49.794;9.722;2023-06-14T14:30:54;25.10;53.70
3996;DHT22;2012;49.794;9.722;2023-06-14T14:33:21;24.90;54.80
3996;DHT22;2012;49.794;9.722;2023-06-14T14:35:48;25.00;54.40
3996;DHT22;2012;49.794;9.722;2023-06-14T14:38:16;25.10;53.80
3996;DHT22;2012;49.794;9.722;2023-06-14T14:40:43;25.40;54.00
3996;DHT22;2012;49.794;9.722;2023-06-14T14:43:11;25.70;54.00
3996;DHT22;2012;49.794;9.722;2023-06-14T14:45:37;25.80;53.50
3996;DHT22;2012;49.794;9.722;2023-06-14T14:48:05;25.80;51.70
3996;DHT22;2012;49.794;9.722;2023-06-14T14:50:32;26.00;52.80
3996;DHT22;2012;49.794;9.722;2023-06-14T14:52:59;26.10;51.50
3996;DHT22;2012;49.794;9.722;2023-06-14T14:55:26;25.80;51.80
3996;DHT22;2012;49.794;9.722;2023-06-14T14:57:53;25.50;53.00
3996;DHT22;2012;49.794;9.722;2023-06-14T15:00:20;25.30;52.00
3996;DHT22;2012;49.794;9.722;2023-06-14T15:02:47;25.40;53.70
3996;DHT22;2012;49.794;9.722;2023-06-14T15:05:15;25.70;52.40
3996;DHT22;2012;49.794;9.722;2023-06-14T15:07:41;25.50;52.00
3996;DHT22;2012;49.794;9.722;2023-06-14T15:10:08;25.50;53.00
3996;DHT22;2012;49.794;9.722;2023-06-14T15:12:35;25.60;53.10
3996;DHT22;2012;49.794;9.722;2023-06-14T15:15:03;25.50;53.00
3996;DHT22;2012;49.794;9.722;2023-06-14T15:17:30;25.70;52.50
3996;DHT22;2012;49.794;9.722;2023-06-14T15:19:57;25.80;52.60
3996;DHT22;2012;49.794;9.722;2023-06-14T15:22:23;25.70;51.80
3996;DHT22;2012;49.794;9.722;2023-06-14T15:24:51;25.60;50.60
3996;DHT22;2012;49.794;9.722;2023-06-14T15:27:18;25.40;50.30
3996;DHT22;2012;49.794;9.722;2023-06-14T15:29:45;25.50;51.00
3996;DHT22;2012;49.794;9.722;2023-06-14T15:32:17;25.50;50.00
3996;DHT22;2012;49.794;9.722;2023-06-14T15:34:44;25.60;51.90
3996;DHT22;2012;49.794;9.722;2023-06-14T15:37:11;25.60;51.20
3996;DHT22;2012;49.794;9.722;2023-06-14T15:39:37;25.60;50.40
3996;DHT22;2012;49.794;9.722;2023-06-14T15:42:05;25.70;51.10
3996;DHT22;2012;49.794;9.722;2023-06-14T15:44:33;25.50;51.20
3996;DHT22;2012;49.794;9.722;2023-06-14T15:47:00;25.70;51.80
3996;DHT22;2012;49.794;9.722;2023-06-14T15:49:27;25.60;51.30
3996;DHT22;2012;49.794;9.722;2023-06-14T15:51:55;25.90;51.40
3996;DHT22;2012;49.794;9.722;2023-06-14T15:54:22;26.20;50.30
3996;DHT22;2012;49.794;9.722;2023-06-14T15:56:48;26.10;51.40
3996;DHT22;2012;49.794;9.722;2023-06-14T15:59:15;26.30;50.60
3996;DHT22;2012;49.794;9.722;2023-06-14T16:01:42;26.30;50.60
3996;DHT22;2012;49.794;9.722;2023-06-14T16:04:09;26.30;49.60
3996;DHT22;2012;49.794;9.722;2023-06-14T16:06:36;26.30;49.60
3996;DHT22;2012;49.794;9.722;2023-06-14T16:09:03;26.10;50.20
3996;DHT22;2012;49.794;9.722;2023-06-14T16:11:30;26.10;50.60
3996;DHT22;2012;49.794;9.722;2023-06-14T16:13:57;26.20;50.00
3996;DHT22;2012;49.794;9.722;2023-06-14T16:16:24;26.00;49.60
3996;DHT22;2012;49.794;9.722;2023-06-14T16:18:52;26.20;50.00
3996;DHT22;2012;49.794;9.722;2023-06-14T16:21:19;26.10;50.70